createdAt,value
2023-03-30T00:00:21.100Z,76.95
2023-03-30T00:03:08.087Z,77.22
2023-03-30T00:05:36.225Z,76.63
2023-03-30T00:08:03.104Z,76.92
2023-03-30T00:10:30.837Z,78.12
2023-03-30T00:12:58.718Z,79.30
2023-03-30T00:15:25.987Z,77.86
2023-03-30T00:17:55.167Z,77.66
2023-03-30T00:20:22.716Z,77.00
2023-03-30T00:22:49.616Z,78.49
2023-03-30T00:25:18.308Z,77.45
2023-03-30T00:27:46.307Z,75.83
2023-03-30T00:30:16.035Z,75.19
2023-03-30T00:32:44.403Z,75.34
2023-03-30T00:35:12.493Z,74.80
2023-03-30T00:37:40.074Z,75.35
2023-03-30T00:40:10.049Z,74.60
2023-03-30T00:42:38.306Z,73.73
2023-03-30T00:45:31.293Z,72.50
2023-03-30T00:48:20.731Z,72.17
2023-03-30T00:50:53.308Z,72.91
2023-03-30T00:53:29.992Z,72.74
2023-03-30T00:55:58.866Z,72.86
2023-03-30T00:58:30.060Z,72.27
2023-03-30T01:01:00.115Z,72.83
2023-03-30T01:03:36.255Z,71.68
2023-03-30T01:06:07.601Z,71.13
2023-03-30T01:08:34.798Z,71.15
2023-03-30T01:11:02.589Z,71.15
2023-03-30T01:13:33.186Z,70.87
2023-03-30T01:16:48.761Z,71.36
2023-03-30T01:19:38.616Z,71.29
2023-03-30T01:22:27.707Z,71.36
2023-03-30T01:24:58.621Z,70.96
2023-03-30T01:28:16.835Z,71.27
2023-03-30T01:31:25.795Z,71.86
2023-03-30T01:34:14.043Z,71.89
2023-03-30T01:36:51.532Z,72.74
2023-03-30T01:39:33.239Z,72.64
2023-03-30T01:42:11.508Z,72.44
2023-03-30T01:44:50.826Z,73.48
2023-03-30T01:47:28.044Z,74.92
2023-03-30T01:50:01.291Z,75.09
2023-03-30T01:52:42.766Z,76.79
2023-03-30T01:55:21.151Z,76.26
2023-03-30T01:57:58.327Z,76.14
2023-03-30T02:00:27.691Z,76.54
2023-03-30T02:03:00.380Z,77.45
2023-03-30T02:05:29.074Z,75.75
2023-03-30T02:08:01.419Z,76.54
2023-03-30T02:10:33.225Z,77.10
2023-03-30T02:13:00.975Z,79.95
2023-03-30T02:15:34.705Z,78.62
2023-03-30T02:18:01.797Z,79.98
2023-03-30T02:20:30.360Z,79.88
2023-03-30T02:22:57.325Z,78.53
2023-03-30T02:25:24.843Z,80.32
2023-03-30T02:27:51.735Z,83.31
2023-03-30T02:30:19.353Z,83.47
2023-03-30T02:32:53.603Z,84.73
2023-03-30T02:35:35.482Z,84.29
2023-03-30T02:38:24.932Z,86.05
2023-03-30T02:41:13.549Z,86.05
2023-03-30T02:44:07.924Z,87.81
2023-03-30T02:46:40.897Z,88.49
2023-03-30T02:50:09.537Z,88.19
2023-03-30T02:52:39.097Z,88.88
2023-03-30T02:55:22.340Z,90.66
2023-03-30T02:58:24.313Z,90.66
2023-03-30T03:00:58.838Z,89.62
2023-03-30T03:03:33.242Z,90.78
2023-03-30T03:06:02.813Z,89.43
2023-03-30T03:08:36.425Z,91.40
2023-03-30T03:11:03.872Z,92.28
2023-03-30T03:13:32.131Z,90.10
2023-03-30T03:16:02.882Z,90.81
2023-03-30T03:18:31.747Z,89.41
2023-03-30T03:20:59.048Z,87.79
2023-03-30T03:23:26.663Z,87.53
2023-03-30T03:25:53.410Z,86.91
2023-03-30T03:28:20.576Z,88.33
2023-03-30T03:30:49.332Z,87.94
2023-03-30T03:33:16.730Z,88.55
2023-03-30T03:35:45.855Z,88.77
2023-03-30T03:38:14.032Z,87.71
2023-03-30T03:40:41.111Z,89.52
2023-03-30T03:43:08.146Z,88.28
2023-03-30T03:45:34.930Z,88.86
2023-03-30T03:48:02.084Z,86.68
2023-03-30T03:50:28.886Z,86.42
2023-03-30T03:52:56.012Z,86.30
2023-03-30T03:55:23.690Z,86.52
2023-03-30T03:57:50.939Z,89.96
2023-03-30T04:00:18.162Z,89.12
2023-03-30T04:02:45.852Z,88.66
2023-03-30T04:05:12.816Z,88.71
2023-03-30T04:07:39.907Z,87.32
2023-03-30T04:10:07.666Z,87.68
2023-03-30T04:12:34.895Z,88.16
2023-03-30T04:15:01.748Z,87.24
2023-03-30T04:17:28.967Z,89.08
2023-03-30T04:19:56.543Z,88.99
2023-03-30T04:22:33.106Z,90.25
2023-03-30T04:25:00.344Z,88.96
2023-03-30T04:27:28.746Z,89.33
2023-03-30T04:29:58.337Z,89.62
2023-03-30T04:32:25.489Z,88.15
2023-03-30T04:34:55.000Z,89.23
2023-03-30T04:37:30.475Z,86.64
2023-03-30T04:39:58.702Z,89.86
2023-03-30T04:42:30.813Z,88.30
2023-03-30T04:44:57.886Z,90.17
2023-03-30T04:47:28.777Z,88.26
2023-03-30T04:49:55.950Z,86.71
2023-03-30T04:52:23.471Z,86.87
2023-03-30T04:54:50.244Z,84.35
2023-03-30T04:57:17.497Z,83.40
2023-03-30T04:59:44.882Z,82.75
2023-03-30T05:02:13.227Z,83.05
2023-03-30T05:04:40.460Z,83.00
2023-03-30T05:07:08.920Z,82.68
2023-03-30T05:09:35.828Z,83.88
2023-03-30T05:12:04.860Z,83.96
2023-03-30T05:14:31.719Z,81.93
2023-03-30T05:16:58.932Z,81.29
2023-03-30T05:19:25.977Z,81.44
2023-03-30T05:21:53.984Z,82.52
2023-03-30T05:24:20.843Z,81.43
2023-03-30T05:26:47.896Z,80.15
2023-03-30T05:29:15.212Z,79.57
2023-03-30T05:31:42.472Z,76.42
2023-03-30T05:34:09.375Z,73.41
2023-03-30T05:36:36.528Z,72.46
2023-03-30T05:39:05.281Z,72.13
2023-03-30T05:41:32.462Z,70.98
2023-03-30T05:43:59.313Z,71.04
2023-03-30T05:46:26.367Z,70.62
2023-03-30T05:48:53.214Z,69.99
2023-03-30T05:51:20.590Z,70.12
2023-03-30T05:53:47.470Z,71.16
2023-03-30T05:56:14.657Z,69.31
2023-03-30T05:58:41.792Z,69.43
2023-03-30T06:01:09.551Z,68.92
2023-03-30T06:03:36.616Z,67.60
2023-03-30T06:06:05.080Z,68.06
2023-03-30T06:08:32.351Z,67.01
2023-03-30T06:10:59.886Z,66.47
2023-03-30T06:13:27.302Z,66.47
2023-03-30T06:15:54.368Z,66.09
2023-03-30T06:18:21.367Z,66.39
2023-03-30T06:20:49.424Z,66.99
2023-03-30T06:23:16.571Z,66.58
2023-03-30T06:25:52.572Z,66.71
2023-03-30T06:28:21.192Z,66.16
2023-03-30T06:30:49.389Z,67.40
2023-03-30T06:33:17.674Z,65.32
2023-03-30T06:35:47.091Z,64.85
2023-03-30T06:38:14.811Z,65.02
2023-03-30T06:40:42.132Z,66.52
2023-03-30T06:43:16.083Z,66.24
2023-03-30T06:45:44.073Z,66.43
2023-03-30T06:48:10.968Z,66.49
2023-03-30T06:50:38.758Z,67.59
2023-03-30T06:53:05.908Z,67.44
2023-03-30T06:55:33.465Z,67.82
2023-03-30T06:58:00.277Z,66.75
2023-03-30T07:00:27.905Z,66.90
2023-03-30T07:02:55.960Z,67.15
2023-03-30T07:05:24.853Z,67.74
2023-03-30T07:07:52.474Z,67.12
2023-03-30T07:10:19.637Z,66.79
2023-03-30T07:12:46.382Z,68.29
2023-03-30T07:15:16.217Z,68.10
2023-03-30T07:17:43.100Z,67.39
2023-03-30T07:20:11.436Z,67.48
2023-03-30T07:22:38.413Z,68.64
2023-03-30T07:25:05.904Z,67.15
2023-03-30T07:27:32.877Z,66.80
2023-03-30T07:30:10.332Z,66.91
2023-03-30T07:32:45.567Z,66.13
2023-03-30T07:35:12.648Z,65.70
2023-03-30T07:37:40.071Z,66.18
2023-03-30T07:40:09.050Z,64.96
2023-03-30T07:42:37.002Z,64.46
2023-03-30T07:45:05.053Z,65.13
2023-03-30T07:47:31.939Z,64.87
2023-03-30T07:50:01.997Z,64.66
2023-03-30T07:52:28.809Z,64.20
2023-03-30T07:54:56.340Z,64.69
2023-03-30T07:57:23.372Z,64.23
2023-03-30T07:59:50.744Z,63.20
2023-03-30T08:02:18.058Z,63.32
2023-03-30T08:04:45.832Z,62.98
2023-03-30T08:07:13.402Z,62.38
2023-03-30T08:09:41.012Z,62.38
2023-03-30T08:12:07.839Z,62.44
2023-03-30T08:14:34.883Z,63.28
2023-03-30T08:17:01.693Z,63.26
2023-03-30T08:19:28.792Z,62.61
2023-03-30T08:21:57.061Z,62.19
2023-03-30T08:24:24.225Z,61.07
2023-03-30T08:26:51.181Z,61.83
2023-03-30T08:29:18.805Z,60.34
2023-03-30T08:31:45.961Z,60.52
2023-03-30T08:34:13.277Z,61.80
2023-03-30T08:36:40.052Z,62.39
2023-03-30T08:39:07.100Z,62.13
2023-03-30T08:41:44.914Z,62.59
2023-03-30T08:44:23.893Z,62.13
2023-03-30T08:46:51.218Z,61.74
2023-03-30T08:49:20.848Z,61.32
2023-03-30T08:51:51.895Z,63.24
2023-03-30T08:54:21.952Z,63.40
2023-03-30T08:57:11.784Z,60.91
2023-03-30T09:00:21.092Z,60.97
2023-03-30T09:02:58.311Z,61.62
2023-03-30T09:05:38.926Z,60.89
2023-03-30T09:08:22.622Z,60.53
2023-03-30T09:10:58.599Z,61.70
2023-03-30T09:13:29.969Z,61.68
2023-03-30T09:16:02.439Z,62.41
2023-03-30T09:18:35.139Z,61.08
2023-03-30T09:21:06.290Z,60.54
2023-03-30T09:23:34.266Z,61.14
2023-03-30T09:26:35.414Z,61.85
2023-03-30T09:29:11.195Z,62.41
2023-03-30T09:31:45.360Z,62.10
2023-03-30T09:34:21.365Z,63.20
2023-03-30T09:37:03.928Z,63.21
2023-03-30T09:39:33.976Z,62.68
2023-03-30T09:42:19.592Z,62.38
2023-03-30T09:44:48.267Z,62.67
2023-03-30T09:47:27.573Z,62.05
2023-03-30T09:50:02.637Z,62.12
2023-03-30T09:52:32.301Z,61.83
2023-03-30T09:55:22.482Z,62.13
2023-03-30T09:57:53.679Z,62.01
2023-03-30T10:00:34.007Z,60.97
2023-03-30T10:03:06.735Z,60.69
2023-03-30T10:05:38.631Z,61.06
2023-03-30T10:08:19.534Z,60.47
2023-03-30T10:10:53.485Z,61.18
2023-03-30T10:13:28.279Z,59.04
2023-03-30T10:15:55.534Z,58.81
2023-03-30T10:18:27.542Z,59.58
2023-03-30T10:21:02.796Z,59.84
2023-03-30T10:23:41.889Z,60.78
2023-03-30T10:26:19.070Z,61.38
2023-03-30T10:29:19.856Z,61.82
2023-03-30T10:31:49.197Z,61.70
2023-03-30T10:34:35.936Z,62.50
2023-03-30T10:37:07.008Z,62.11
2023-03-30T10:39:36.516Z,62.20
2023-03-30T10:42:05.671Z,63.76
2023-03-30T10:44:46.371Z,62.31
2023-03-30T10:47:33.839Z,62.40
2023-03-30T10:50:19.966Z,62.56
2023-03-30T10:53:26.288Z,62.00
2023-03-30T10:56:11.797Z,60.92
2023-03-30T10:59:04.520Z,61.46
2023-03-30T11:01:49.910Z,61.19
2023-03-30T11:04:27.902Z,60.00
2023-03-30T11:06:59.066Z,60.64
2023-03-30T11:09:39.912Z,61.47
2023-03-30T11:12:15.114Z,59.71
2023-03-30T11:14:50.639Z,59.71
2023-03-30T11:17:29.384Z,58.88
2023-03-30T11:19:57.572Z,58.98
2023-03-30T11:22:38.394Z,59.02
2023-03-30T11:25:25.264Z,59.88
2023-03-30T11:28:20.914Z,60.52
2023-03-30T11:30:51.193Z,59.61
2023-03-30T11:33:32.704Z,59.80
2023-03-30T11:36:08.746Z,60.67
2023-03-30T11:38:44.387Z,60.54
2023-03-30T11:41:19.780Z,61.17
2023-03-30T11:43:46.975Z,61.09
2023-03-30T11:46:22.565Z,61.01
2023-03-30T11:48:56.002Z,61.38
2023-03-30T11:51:38.009Z,62.07
2023-03-30T11:54:13.715Z,61.67
2023-03-30T11:56:46.941Z,60.46
2023-03-30T11:59:51.458Z,60.63
2023-03-30T12:02:27.241Z,60.45
2023-03-30T12:05:05.559Z,60.65
2023-03-30T12:08:07.462Z,59.37
2023-03-30T12:10:41.451Z,60.57
2023-03-30T12:13:15.077Z,60.08
2023-03-30T12:16:09.861Z,58.79
2023-03-30T12:18:47.665Z,60.38
2023-03-30T12:21:36.687Z,58.78
2023-03-30T12:24:40.089Z,58.38
2023-03-30T12:27:11.590Z,57.67
2023-03-30T12:32:29.178Z,56.11
2023-03-30T12:34:58.130Z,55.59
2023-03-30T12:37:48.210Z,56.53
2023-03-30T12:40:22.555Z,57.17
2023-03-30T12:43:03.970Z,56.77
2023-03-30T12:45:33.552Z,57.24
2023-03-30T12:48:04.198Z,58.00
2023-03-30T12:50:37.201Z,59.69
2023-03-30T12:53:04.372Z,59.86
2023-03-30T12:55:47.328Z,59.42
2023-03-30T12:58:30.424Z,58.43
2023-03-30T13:01:14.683Z,58.66
2023-03-30T13:03:52.470Z,58.89
2023-03-30T13:06:28.808Z,58.77
2023-03-30T13:09:12.622Z,58.37
2023-03-30T13:11:45.599Z,58.65
2023-03-30T13:14:35.933Z,59.06
2023-03-30T13:17:10.100Z,58.88
2023-03-30T13:19:37.359Z,59.16
2023-03-30T13:22:37.798Z,60.02
2023-03-30T13:25:20.111Z,60.52
2023-03-30T13:27:51.120Z,61.59
2023-03-30T13:30:19.654Z,61.47
2023-03-30T13:33:04.914Z,61.47
2023-03-30T13:36:06.693Z,62.06
2023-03-30T13:38:54.284Z,62.79
2023-03-30T13:42:04.378Z,62.16
2023-03-30T13:45:25.248Z,62.38
2023-03-30T13:47:52.478Z,62.25
2023-03-30T13:50:27.954Z,62.53
2023-03-30T13:52:57.484Z,63.37
2023-03-30T13:55:33.220Z,63.22
2023-03-30T13:58:11.051Z,63.30
2023-03-30T14:00:48.587Z,63.03
2023-03-30T14:03:41.268Z,62.79
2023-03-30T14:06:21.982Z,62.68
2023-03-30T14:08:51.279Z,62.38
2023-03-30T14:11:22.499Z,61.63
2023-03-30T14:13:53.896Z,61.54
2023-03-30T14:16:31.791Z,62.28
2023-03-30T14:19:20.641Z,62.28
2023-03-30T14:21:48.398Z,63.90
2023-03-30T14:24:19.220Z,64.25
2023-03-30T14:26:47.919Z,63.94
2023-03-30T14:29:30.432Z,64.44
2023-03-30T14:32:07.986Z,64.99
2023-03-30T14:34:38.778Z,64.08
2023-03-30T14:37:08.389Z,63.76
2023-03-30T14:40:06.552Z,63.90
2023-03-30T14:42:34.219Z,63.84
2023-03-30T14:45:01.617Z,63.67
2023-03-30T14:47:31.495Z,63.19
2023-03-30T14:50:02.090Z,62.81
2023-03-30T14:52:38.881Z,63.25
2023-03-30T14:55:11.458Z,63.40
2023-03-30T14:57:42.512Z,63.22
2023-03-30T15:00:22.662Z,64.01
2023-03-30T15:02:56.791Z,63.75
2023-03-30T15:05:30.058Z,63.54
2023-03-30T15:07:56.944Z,63.56
2023-03-30T15:10:29.994Z,63.35
2023-03-30T15:12:57.853Z,63.92
2023-03-30T15:15:29.826Z,63.91
2023-03-30T15:17:57.607Z,64.35
2023-03-30T15:20:30.413Z,64.63
2023-03-30T15:22:57.827Z,64.92
2023-03-30T15:25:32.902Z,65.26
2023-03-30T15:28:05.726Z,65.40
2023-03-30T15:30:44.148Z,66.37
2023-03-30T15:33:26.180Z,66.10
2023-03-30T15:35:54.017Z,66.37
2023-03-30T15:38:30.129Z,67.05
2023-03-30T15:40:57.243Z,67.02
2023-03-30T15:43:30.995Z,67.39
2023-03-30T15:46:05.250Z,67.52
2023-03-30T15:48:47.989Z,67.66
2023-03-30T15:51:16.955Z,68.05
2023-03-30T15:53:52.150Z,68.66
2023-03-30T15:56:43.090Z,69.33
2023-03-30T15:59:15.280Z,70.16
2023-03-30T16:01:53.065Z,69.28
2023-03-30T16:04:23.090Z,69.99
2023-03-30T16:06:52.551Z,70.99
2023-03-30T16:09:23.123Z,75.08
2023-03-30T16:11:50.605Z,76.20
2023-03-30T16:14:20.511Z,78.08
2023-03-30T16:16:48.500Z,83.75
2023-03-30T16:19:20.221Z,85.25
2023-03-30T16:21:51.568Z,91.98
2023-03-30T16:24:18.392Z,96.67
2023-03-30T16:26:46.758Z,100.00
2023-03-30T16:29:24.160Z,100.00
2023-03-30T16:31:52.426Z,100.00
2023-03-30T16:34:21.759Z,100.00
2023-03-30T16:36:50.146Z,100.00
2023-03-30T16:39:18.603Z,100.00
2023-03-30T16:41:47.284Z,100.00
2023-03-30T16:44:14.360Z,100.00
2023-03-30T16:46:42.629Z,100.00
2023-03-30T16:49:14.821Z,100.00
2023-03-30T16:51:42.762Z,100.00
2023-03-30T16:54:23.046Z,100.00
2023-03-30T16:56:58.537Z,100.00
2023-03-30T16:59:29.073Z,100.00
2023-03-30T17:01:56.533Z,100.00
2023-03-30T17:04:23.321Z,100.00
2023-03-30T17:06:50.567Z,100.00
2023-03-30T17:09:22.039Z,100.00
2023-03-30T17:11:49.900Z,100.00
2023-03-30T17:14:17.141Z,100.00
2023-03-30T17:16:44.543Z,100.00
2023-03-30T17:19:14.791Z,100.00
2023-03-30T17:21:46.141Z,100.00
2023-03-30T17:24:15.294Z,100.00
2023-03-30T17:26:45.537Z,100.00
2023-03-30T17:29:12.465Z,100.00
2023-03-30T17:31:39.607Z,100.00
2023-03-30T17:34:07.476Z,100.00
2023-03-30T17:36:37.857Z,100.00
2023-03-30T17:39:05.191Z,100.00
2023-03-30T17:41:38.171Z,100.00
2023-03-30T17:44:04.962Z,100.00
2023-03-30T17:46:32.661Z,100.00
2023-03-30T17:48:59.998Z,100.00
2023-03-30T17:51:27.151Z,100.00
2023-03-30T17:53:53.967Z,100.00
2023-03-30T17:56:21.049Z,100.00
2023-03-30T17:58:49.836Z,100.00
2023-03-30T18:01:17.390Z,100.00
2023-03-30T18:03:44.797Z,100.00
2023-03-30T18:06:12.813Z,100.00
2023-03-30T18:08:39.696Z,100.00
2023-03-30T18:11:07.206Z,100.00
2023-03-30T18:13:34.310Z,100.00
2023-03-30T18:16:01.719Z,100.00
2023-03-30T18:18:31.189Z,100.00
2023-03-30T18:21:02.999Z,100.00
2023-03-30T18:23:34.577Z,100.00
2023-03-30T18:26:12.235Z,100.00
2023-03-30T18:28:42.458Z,100.00
2023-03-30T18:31:09.760Z,100.00
2023-03-30T18:33:36.615Z,100.00
2023-03-30T18:36:12.601Z,100.00
2023-03-30T18:38:39.894Z,100.00
2023-03-30T18:41:12.029Z,100.00
2023-03-30T18:43:39.275Z,100.00
2023-03-30T18:46:06.722Z,100.00
2023-03-30T18:48:36.649Z,100.00
2023-03-30T18:51:03.740Z,100.00
2023-03-30T18:53:30.524Z,100.00
2023-03-30T18:56:01.690Z,100.00
2023-03-30T18:58:41.792Z,100.00
2023-03-30T19:01:13.315Z,100.00
2023-03-30T19:03:40.681Z,100.00
2023-03-30T19:06:19.721Z,100.00
2023-03-30T19:08:46.578Z,100.00
2023-03-30T19:11:21.956Z,100.00
2023-03-30T19:13:49.959Z,100.00
2023-03-30T19:16:18.670Z,100.00
2023-03-30T19:18:46.256Z,100.00
2023-03-30T19:21:17.677Z,100.00
2023-03-30T19:23:44.850Z,100.00
2023-03-30T19:26:12.716Z,100.00
2023-03-30T19:28:40.550Z,100.00
2023-03-30T19:31:13.499Z,100.00
2023-03-30T19:33:40.681Z,100.00
2023-03-30T19:36:09.418Z,100.00
2023-03-30T19:38:37.186Z,100.00
2023-03-30T19:41:05.151Z,100.00
2023-03-30T19:43:32.065Z,100.00
2023-03-30T19:45:59.908Z,100.00
2023-03-30T19:48:27.888Z,100.00
2023-03-30T19:50:57.960Z,100.00
2023-03-30T19:53:25.255Z,100.00
2023-03-30T19:55:52.326Z,100.00
2023-03-30T19:58:19.132Z,100.00
2023-03-30T20:00:47.175Z,100.00
2023-03-30T20:03:14.597Z,100.00
2023-03-30T20:05:50.210Z,100.00
2023-03-30T20:08:24.266Z,100.00
2023-03-30T20:10:52.783Z,100.00
2023-03-30T20:13:22.101Z,100.00
2023-03-30T20:15:54.393Z,100.00
2023-03-30T20:18:21.265Z,100.00
2023-03-30T20:20:48.318Z,100.00
2023-03-30T20:23:15.591Z,100.00
2023-03-30T20:25:50.530Z,100.00
2023-03-30T20:28:18.345Z,100.00
2023-03-30T20:30:46.634Z,100.00
2023-03-30T20:33:14.697Z,100.00
2023-03-30T20:35:41.979Z,100.00
2023-03-30T20:38:09.584Z,100.00
2023-03-30T20:40:36.688Z,100.00
2023-03-30T20:43:03.677Z,100.00
2023-03-30T20:45:31.250Z,100.00
2023-03-30T20:47:59.845Z,100.00
2023-03-30T20:50:28.265Z,100.00
2023-03-30T20:52:55.044Z,100.00
2023-03-30T20:55:22.117Z,100.00
2023-03-30T20:57:48.974Z,100.00
2023-03-30T21:00:16.476Z,100.00
2023-03-30T21:02:43.319Z,100.00
2023-03-30T21:05:10.445Z,100.00
2023-03-30T21:07:38.312Z,100.00
2023-03-30T21:10:06.449Z,100.00
2023-03-30T21:12:33.352Z,100.00
2023-03-30T21:15:01.485Z,100.00
2023-03-30T21:17:28.320Z,100.00
2023-03-30T21:19:55.419Z,100.00
2023-03-30T21:22:22.654Z,100.00
2023-03-30T21:24:49.706Z,100.00
2023-03-30T21:27:16.753Z,100.00
2023-03-30T21:29:43.789Z,100.00
2023-03-30T21:32:10.636Z,100.00
2023-03-30T21:34:37.673Z,100.00
2023-03-30T21:37:04.538Z,100.00
2023-03-30T21:39:31.889Z,100.00
2023-03-30T21:41:59.925Z,100.00
2023-03-30T21:44:28.264Z,100.00
2023-03-30T21:46:55.133Z,100.00
2023-03-30T21:49:22.287Z,100.00
2023-03-30T21:51:49.764Z,100.00
2023-03-30T21:54:19.648Z,100.00
2023-03-30T21:56:46.617Z,100.00
2023-03-30T21:59:16.406Z,100.00
2023-03-30T22:01:46.049Z,100.00
2023-03-30T22:04:13.153Z,100.00
2023-03-30T22:06:39.942Z,100.00
2023-03-30T22:09:14.353Z,100.00
2023-03-30T22:11:41.156Z,100.00
2023-03-30T22:14:08.266Z,100.00
2023-03-30T22:16:36.908Z,100.00
2023-03-30T22:19:07.440Z,100.00
2023-03-30T22:21:34.754Z,100.00
2023-03-30T22:24:04.997Z,100.00
2023-03-30T22:26:32.165Z,100.00
2023-03-30T22:28:59.630Z,100.00
2023-03-30T22:31:27.637Z,100.00
2023-03-30T22:33:55.685Z,100.00
2023-03-30T22:36:24.921Z,100.00
2023-03-30T22:38:52.818Z,100.00
2023-03-30T22:41:24.028Z,100.00
2023-03-30T22:43:57.804Z,100.00
2023-03-30T22:46:26.565Z,100.00
2023-03-30T22:48:56.022Z,100.00
2023-03-30T22:51:26.386Z,100.00
2023-03-30T22:54:00.868Z,100.00
2023-03-30T22:56:28.376Z,100.00
2023-03-30T22:59:00.813Z,100.00
2023-03-30T23:01:32.581Z,100.00
2023-03-30T23:04:00.395Z,100.00
2023-03-30T23:06:27.509Z,100.00
2023-03-30T23:08:54.881Z,100.00
2023-03-30T23:11:26.460Z,100.00
2023-03-30T23:13:53.981Z,100.00
2023-03-30T23:16:22.559Z,100.00
2023-03-30T23:18:50.331Z,100.00
2023-03-30T23:21:17.579Z,100.00
2023-03-30T23:23:44.706Z,100.00
2023-03-30T23:26:14.755Z,100.00
2023-03-30T23:28:43.112Z,100.00
2023-03-30T23:31:13.002Z,100.00
2023-03-30T23:33:41.476Z,100.00
2023-03-30T23:36:09.238Z,100.00
2023-03-30T23:38:39.599Z,100.00
2023-03-30T23:41:06.498Z,100.00
2023-03-30T23:43:33.738Z,100.00
2023-03-30T23:46:00.572Z,100.00
2023-03-30T23:48:27.673Z,100.00
2023-03-30T23:50:57.022Z,100.00
2023-03-30T23:53:26.638Z,100.00
2023-03-30T23:55:54.357Z,100.00
2023-03-30T23:58:21.724Z,100.00
